Time;durP1;ratioP1;P1;durP2;ratioP2;P2;SDS_P1;SDS_P2;PMS_P1;PMS_P2;Temp;Humidity;BMP_temperature;BMP_pressure;BME280_temperature;BME280_humidity;BME280_pressure;Samples;Min_cycle;Max_cycle;Signal;HPM_P1;HPM_P2
2023/05/12 00:01:01;;;;;;;;;;;;;;;-140.72;100.00;52869.75;5090716;28;19916;-76
2023/05/12 00:03:26;;;;;;;;;;;;;;;-140.72;100.00;52910.34;5122534;27;19924;-76
2023/05/12 00:05:51;;;;;;;;;;;;;;;-140.72;100.00;52894.13;5100878;28;20011;-76
2023/05/12 00:08:17;;;;;;;;;;;;;;;-140.72;100.00;52883.97;5097805;28;19977;-76
2023/05/12 00:10:42;;;;;;;;;;;;;;;-140.72;100.00;52906.28;5096390;28;19920;-76
2023/05/12 00:13:08;;;;;;;;;;;;;;;-140.72;100.00;52924.56;5099830;28;19927;-75
2023/05/12 00:15:33;;;;;;;;;;;;;;;-140.72;100.00;52920.50;5094406;28;19916;-76
2023/05/12 00:17:58;;;;;;;;;;;;;;;-140.72;100.00;52865.69;5096154;28;19920;-75
2023/05/12 00:20:23;;;;;;;;;;;;;;;-140.72;100.00;52908.31;5100085;28;20297;-75
2023/05/12 00:22:48;;;;;;;;;;;;;;;-140.72;100.00;52894.13;5094767;28;20029;-75
2023/05/12 00:25:14;;;;;;;;;;;;;;;-140.72;100.00;52918.47;5098799;28;19920;-75
2023/05/12 00:27:39;;;;;;;;;;;;;;;-140.72;100.00;52890.06;5098767;28;19924;-75
2023/05/12 00:30:05;;;;;;;;;;;;;;;-140.72;100.00;52890.06;5106830;28;20014;-75
2023/05/12 00:32:31;;;;;;;;;;;;;;;-140.72;100.00;52906.28;5094798;28;21094;-75
2023/05/12 00:34:56;;;;;;;;;;;;;;;-140.72;100.00;52894.13;5092995;28;20366;-75
2023/05/12 00:37:21;;;;;;;;;;;;;;;-140.72;100.00;52910.34;5094374;28;19934;-75
2023/05/12 00:39:46;;;;;;;;;;;;;;;-140.72;100.00;52930.66;5101141;28;19994;-75
2023/05/12 00:42:11;;;;;;;;;;;;;;;-140.72;100.00;52914.41;5099334;28;19920;-76
2023/05/12 00:44:37;;;;;;;;;;;;;;;-140.72;100.00;52879.91;5090041;28;19920;-76
2023/05/12 00:47:02;;;;;;;;;;;;;;;-140.72;100.00;52902.22;5094092;28;19924;-75
2023/05/12 00:49:28;;;;;;;;;;;;;;;-140.72;100.00;52898.16;5092628;28;19920;-76
2023/05/12 00:51:54;;;;;;;;;;;;;;;-140.72;100.00;52894.13;5094162;28;19924;-76
2023/05/12 00:54:19;;;;;;;;;;;;;;;-140.72;100.00;52902.22;5100136;28;19928;-76
2023/05/12 00:56:44;;;;;;;;;;;;;;;-140.72;100.00;52898.16;5090730;28;19920;-76
2023/05/12 00:59:09;;;;;;;;;;;;;;;-140.72;100.00;52920.50;5099826;28;19926;-76
2023/05/12 01:01:35;;;;;;;;;;;;;;;-140.72;100.00;52920.50;5099896;28;19924;-75
2023/05/12 01:04:01;;;;;;;;;;;;;;;-140.72;100.00;52922.53;5104664;28;20010;-76
2023/05/12 01:06:41;;;;;;;;;;;;;;;-140.72;100.00;52920.50;5089618;28;19951;-76
2023/05/12 01:09:07;;;;;;;;;;;;;;;-140.72;100.00;52902.22;5095702;28;19923;-76
2023/05/12 01:11:32;;;;;;;;;;;;;;;-140.72;100.00;52934.69;5090040;28;19916;-76
2023/05/12 01:13:57;;;;;;;;;;;;;;;-140.72;100.00;52914.41;5093483;28;20006;-76
2023/05/12 01:16:25;;;;;;;;;;;;;;;-140.72;100.00;52938.75;5089233;28;20336;-75
2023/05/12 01:18:53;;;;;;;;;;;;;;;-140.72;100.00;52914.41;5088948;28;19946;-76
2023/05/12 01:21:19;;;;;;;;;;;;;;;-140.72;100.00;52938.75;5082344;28;19916;-75
2023/05/12 01:23:47;;;;;;;;;;;;;;;-140.72;100.00;52908.31;5086595;28;19920;-75
2023/05/12 01:26:13;;;;;;;;;;;;;;;-140.72;100.00;52950.94;5120812;27;19916;-75
2023/05/12 01:28:40;;;;;;;;;;;;;;;-140.72;100.00;52892.09;5095005;28;19927;-75
2023/05/12 01:31:06;;;;;;;;;;;;;;;-140.72;100.00;52916.44;5096108;28;19926;-75
2023/05/12 01:33:31;;;;;;;;;;;;;;;-140.72;100.00;52973.25;5100456;28;20006;-75
2023/05/12 01:35:57;;;;;;;;;;;;;;;-140.72;100.00;52965.16;5099027;28;19924;-75
2023/05/12 01:38:22;;;;;;;;;;;;;;;-140.72;100.00;52900.19;5093196;28;19924;-75
2023/05/12 01:40:47;;;;;;;;;;;;;;;-140.72;100.00;52946.88;5097697;28;20275;-76
2023/05/12 01:43:12;;;;;;;;;;;;;;;-140.72;100.00;52914.41;5101191;28;20399;-76
2023/05/12 01:45:37;;;;;;;;;;;;;;;-140.72;100.00;52940.78;5100527;28;19924;-75
2023/05/12 01:48:03;;;;;;;;;;;;;;;-140.72;100.00;52892.09;5088724;28;19928;-75
2023/05/12 01:50:28;;;;;;;;;;;;;;;-140.72;100.00;52926.59;5087340;28;20381;-75
2023/05/12 01:52:53;;;;;;;;;;;;;;;-140.72;100.00;52934.69;5083634;28;19924;-75
2023/05/12 01:55:19;;;;;;;;;;;;;;;-140.72;100.00;52926.59;5090559;28;20070;-76
2023/05/12 01:57:44;;;;;;;;;;;;;;;-140.72;100.00;52952.97;5088129;28;19935;-76
2023/05/12 02:00:10;;;;;;;;;;;;;;;-140.72;100.00;52965.16;5094534;28;19927;-76
2023/05/12 02:02:35;;;;;;;;;;;;;;;-140.72;100.00;52869.75;5076799;28;19960;-76
2023/05/12 02:05:00;;;;;;;;;;;;;;;-140.72;100.00;52946.88;5082282;28;19920;-76
2023/05/12 02:07:25;;;;;;;;;;;;;;;-140.72;100.00;52918.47;5088505;28;19927;-76
2023/05/12 02:09:51;;;;;;;;;;;;;;;-140.72;100.00;52930.66;5089238;28;20333;-76
2023/05/12 02:12:16;;;;;;;;;;;;;;;-140.72;100.00;52910.34;5083925;28;20291;-76
2023/05/12 02:14:41;;;;;;;;;;;;;;;-140.72;100.00;52934.69;5086244;28;19920;-75
2023/05/12 02:17:07;;;;;;;;;;;;;;;-140.72;100.00;52928.63;5082516;28;19920;-76
2023/05/12 02:19:32;;;;;;;;;;;;;;;-140.72;100.00;52920.50;5084091;28;20442;-76
2023/05/12 02:22:20;;;;;;;;;;;;;;;-140.72;100.00;52932.66;5081103;28;19916;-76
2023/05/12 02:24:45;;;;;;;;;;;;;;;-140.72;100.00;52967.16;5083653;28;19917;-76
2023/05/12 02:27:11;;;;;;;;;;;;;;;-140.72;100.00;52926.59;5094205;28;19977;-76
2023/05/12 02:29:36;;;;;;;;;;;;;;;-140.72;100.00;52950.94;5095586;28;20320;-76
2023/05/12 02:32:02;;;;;;;;;;;;;;;-140.72;100.00;52944.84;5083528;28;19921;-76
2023/05/12 02:34:41;;;;;;;;;;;;;;;-140.72;100.00;52916.44;5091623;28;19920;-76
2023/05/12 02:37:06;;;;;;;;;;;;;;;-140.72;100.00;52999.66;5093444;28;19970;-76
2023/05/12 02:39:35;;;;;;;;;;;;;;;-140.72;100.00;52930.66;5075800;28;19917;-76
2023/05/12 02:42:00;;;;;;;;;;;;;;;-140.72;100.00;52973.25;5086682;28;19939;-76
2023/05/12 02:44:47;;;;;;;;;;;;;;;-140.72;100.00;52955.00;5081293;28;20374;-76
2023/05/12 02:47:12;;;;;;;;;;;;;;;-140.72;100.00;52922.53;5082646;28;19927;-76
2023/05/12 02:49:56;;;;;;;;;;;;;;;-140.72;100.00;52971.22;5078082;28;19915;-76
2023/05/12 02:52:21;;;;;;;;;;;;;;;-140.72;100.00;52944.84;5094042;28;19916;-76
2023/05/12 02:54:46;;;;;;;;;;;;;;;-140.72;100.00;52938.75;5093544;28;19973;-76
2023/05/12 02:57:12;;;;;;;;;;;;;;;-140.72;100.00;52938.75;5093763;28;19977;-76
2023/05/12 02:59:37;;;;;;;;;;;;;;;-140.72;100.00;52944.84;5104902;28;20368;-77
2023/05/12 03:02:03;;;;;;;;;;;;;;;-140.72;100.00;52971.22;5106784;28;19915;-76
2023/05/12 03:04:28;;;;;;;;;;;;;;;-140.72;100.00;52928.63;5087071;28;19923;-76
2023/05/12 03:06:54;;;;;;;;;;;;;;;-140.72;100.00;52930.66;5093325;28;19916;-75
2023/05/12 03:09:19;;;;;;;;;;;;;;;-140.72;100.00;52967.16;5089741;28;20298;-76
2023/05/12 03:11:45;;;;;;;;;;;;;;;-140.72;100.00;52902.22;5089581;28;19997;-76
2023/05/12 03:14:10;;;;;;;;;;;;;;;-140.72;100.00;52942.81;5104699;28;20378;-76
2023/05/12 03:16:35;;;;;;;;;;;;;;;-140.72;100.00;52963.13;5103205;28;19926;-76
2023/05/12 03:19:01;;;;;;;;;;;;;;;-140.72;100.00;52952.97;5104213;28;19923;-76
2023/05/12 03:21:27;;;;;;;;;;;;;;;-140.72;100.00;52948.91;5098016;28;19938;-76
2023/05/12 03:23:52;;;;;;;;;;;;;;;-140.72;100.00;52977.31;5080234;28;20239;-76
2023/05/12 03:26:18;;;;;;;;;;;;;;;-140.72;100.00;52910.34;5090563;28;19920;-76
2023/05/12 03:28:43;;;;;;;;;;;;;;;-140.72;100.00;52981.38;5087505;28;20346;-75
2023/05/12 03:31:09;;;;;;;;;;;;;;;-140.72;100.00;52924.56;5090907;28;19927;-75
2023/05/12 03:33:34;;;;;;;;;;;;;;;-140.72;100.00;52946.88;5093839;28;19989;-75
2023/05/12 03:35:59;;;;;;;;;;;;;;;-140.72;100.00;52924.56;5086091;28;19927;-76
2023/05/12 03:38:24;;;;;;;;;;;;;;;-140.72;100.00;52957.03;5099406;28;19935;-76
2023/05/12 03:40:53;;;;;;;;;;;;;;;-140.72;100.00;52965.16;5096250;28;20282;-76
2023/05/12 03:43:18;;;;;;;;;;;;;;;-140.72;100.00;52942.81;5123065;27;19932;-75
2023/05/12 03:45:43;;;;;;;;;;;;;;;-140.72;100.00;52995.59;5105582;28;19920;-76
2023/05/12 03:48:08;;;;;;;;;;;;;;;-140.72;100.00;52938.75;5091429;28;20416;-75
2023/05/12 03:50:34;;;;;;;;;;;;;;;-140.72;100.00;52946.88;5095676;28;19970;-76
2023/05/12 03:52:59;;;;;;;;;;;;;;;-140.72;100.00;52934.69;5102598;28;19928;-76
2023/05/12 03:55:25;;;;;;;;;;;;;;;-140.72;100.00;52952.97;5096166;28;20407;-76
2023/05/12 03:57:50;;;;;;;;;;;;;;;-140.72;100.00;52938.75;5112401;28;19981;-75
2023/05/12 04:00:15;;;;;;;;;;;;;;;-140.72;100.00;52912.38;5108646;28;19924;-76
2023/05/12 04:02:41;;;;;;;;;;;;;;;-140.72;100.00;52967.16;5095073;28;19920;-76
2023/05/12 04:05:07;;;;;;;;;;;;;;;-140.72;100.00;52950.94;5095225;28;19924;-76
2023/05/12 04:07:32;;;;;;;;;;;;;;;-140.72;100.00;52932.66;5100568;28;20018;-76
2023/05/12 04:09:58;;;;;;;;;;;;;;;-140.72;100.00;52955.00;5101493;28;20018;-77
2023/05/12 04:12:24;;;;;;;;;;;;;;;-140.72;100.00;52942.81;5096232;28;20004;-76
2023/05/12 04:14:49;;;;;;;;;;;;;;;-140.72;100.00;52930.66;5098912;28;19947;-77
2023/05/12 04:17:14;;;;;;;;;;;;;;;-140.72;100.00;52977.31;5127567;27;20450;-76
2023/05/12 04:19:39;;;;;;;;;;;;;;;-140.72;100.00;52959.06;5099968;28;19931;-76
2023/05/12 04:22:05;;;;;;;;;;;;;;;-140.72;100.00;52930.66;5095855;28;20017;-76
2023/05/12 04:24:30;;;;;;;;;;;;;;;-140.72;100.00;52983.41;5112964;28;20003;-75
2023/05/12 04:26:56;;;;;;;;;;;;;;;-140.72;100.00;52955.00;5099843;28;20360;-75
2023/05/12 04:29:21;;;;;;;;;;;;;;;-140.72;100.00;52963.13;5113256;28;19941;-75
2023/05/12 04:31:46;;;;;;;;;;;;;;;-140.72;100.00;52930.66;5094340;28;19931;-75
2023/05/12 04:34:12;;;;;;;;;;;;;;;-140.72;100.00;52959.06;5087312;28;20413;-75
2023/05/12 04:36:37;;;;;;;;;;;;;;;-140.72;100.00;52942.81;5095626;28;19919;-75
2023/05/12 04:39:03;;;;;;;;;;;;;;;-140.72;100.00;52918.47;5104471;28;19920;-76
2023/05/12 04:41:29;;;;;;;;;;;;;;;-140.72;100.00;52963.13;5092833;28;19943;-76
2023/05/12 04:43:54;;;;;;;;;;;;;;;-140.72;100.00;52926.59;5088607;28;20266;-75
2023/05/12 04:46:20;;;;;;;;;;;;;;;-140.72;100.00;52950.94;5091817;28;19920;-76
2023/05/12 04:48:45;;;;;;;;;;;;;;;-140.72;100.00;52969.19;5089922;28;19920;-75
2023/05/12 04:51:11;;;;;;;;;;;;;;;-140.72;100.00;52959.06;5094419;28;20483;-75
2023/05/12 04:53:36;;;;;;;;;;;;;;;-140.72;100.00;52932.66;5094208;28;19924;-75
2023/05/12 04:56:02;;;;;;;;;;;;;;;-140.72;100.00;52946.88;5093150;28;19920;-76
2023/05/12 04:58:27;;;;;;;;;;;;;;;-140.72;100.00;52932.66;5095303;28;19930;-75
2023/05/12 05:00:52;;;;;;;;;;;;;;;-140.72;100.00;52959.06;5096549;28;20003;-75
2023/05/12 05:03:17;;;;;;;;;;;;;;;-140.72;100.00;52967.16;5092676;28;19935;-74
2023/05/12 05:05:43;;;;;;;;;;;;;;;-140.72;100.00;52922.53;5094532;28;19951;-74
2023/05/12 05:08:08;;;;;;;;;;;;;;;-140.72;100.00;52928.63;5094162;28;19924;-74
2023/05/12 05:10:33;;;;;;;;;;;;;;;-140.72;100.00;52934.69;5094615;28;19920;-76
2023/05/12 05:12:58;;;;;;;;;;;;;;;-140.72;100.00;52944.84;5088692;28;19981;-75
2023/05/12 05:15:24;;;;;;;;;;;;;;;-140.72;100.00;52904.25;5095641;28;19924;-76
2023/05/12 05:17:49;;;;;;;;;;;;;;;-140.72;100.00;52967.16;5089637;28;19932;-76
2023/05/12 05:20:15;;;;;;;;;;;;;;;-140.72;100.00;52928.63;5096711;28;19924;-78
2023/05/12 05:22:40;;;;;;;;;;;;;;;-140.72;100.00;52950.94;5091924;28;19916;-78
2023/05/12 05:25:05;;;;;;;;;;;;;;;-140.72;100.00;52930.66;5096926;28;19920;-78
2023/05/12 05:27:31;;;;;;;;;;;;;;;-140.72;100.00;52944.84;5095731;28;19920;-78
2023/05/12 05:29:56;;;;;;;;;;;;;;;-140.72;100.00;52922.53;5100539;28;19936;-79
2023/05/12 05:32:21;;;;;;;;;;;;;;;-140.72;100.00;52934.69;5093695;28;19920;-76
2023/05/12 05:34:47;;;;;;;;;;;;;;;-140.72;100.00;52967.16;5089292;28;19965;-76
2023/05/12 05:37:12;;;;;;;;;;;;;;;-140.72;100.00;52918.47;5092806;28;20015;-76
2023/05/12 05:39:37;;;;;;;;;;;;;;;-140.72;100.00;52952.97;5094530;28;20009;-76
2023/05/12 05:42:02;;;;;;;;;;;;;;;-140.72;100.00;52896.16;5091653;28;19928;-77
2023/05/12 05:44:28;;;;;;;;;;;;;;;-140.72;100.00;52930.66;5092254;28;20371;-76
2023/05/12 05:46:53;;;;;;;;;;;;;;;-140.72;100.00;52898.16;5092340;28;20102;-78
2023/05/12 05:49:18;;;;;;;;;;;;;;;-140.72;100.00;52955.00;5093695;28;20019;-76
2023/05/12 05:51:44;;;;;;;;;;;;;;;-140.72;100.00;52908.31;5082018;28;19969;-76
2023/05/12 05:54:09;;;;;;;;;;;;;;;-140.72;100.00;52938.75;5092270;28;19966;-76
2023/05/12 05:56:34;;;;;;;;;;;;;;;-140.72;100.00;52910.34;5091194;28;19924;-76
2023/05/12 05:59:02;;;;;;;;;;;;;;;-140.72;100.00;52888.03;5088087;28;20909;-76
2023/05/12 06:01:27;;;;;;;;;;;;;;;-140.72;100.00;52912.38;5083948;28;19921;-75
2023/05/12 06:03:52;;;;;;;;;;;;;;;-140.72;100.00;52873.81;5094805;28;19920;-76
2023/05/12 06:06:17;;;;;;;;;;;;;;;-140.72;100.00;52926.59;5091055;28;20373;-77
2023/05/12 06:08:43;;;;;;;;;;;;;;;-140.72;100.00;52869.75;5090653;28;20010;-75
2023/05/12 06:11:08;;;;;;;;;;;;;;;-140.72;100.00;52918.47;5096516;28;20326;-76
2023/05/12 06:13:33;;;;;;;;;;;;;;;-140.72;100.00;52845.41;5077385;28;19920;-75
2023/05/12 06:15:58;;;;;;;;;;;;;;;-140.72;100.00;52886.00;5077729;28;19917;-75
2023/05/12 06:18:24;;;;;;;;;;;;;;;-140.72;100.00;52857.59;5090451;28;19926;-75
2023/05/12 06:20:49;;;;;;;;;;;;;;;-140.72;100.00;52896.16;5104667;28;20089;-75
2023/05/12 06:23:14;;;;;;;;;;;;;;;-140.72;100.00;52881.94;5094605;28;19927;-76
2023/05/12 06:25:40;;;;;;;;;;;;;;;-140.72;100.00;52890.06;5102068;28;19916;-75
2023/05/12 06:28:05;;;;;;;;;;;;;;;-140.72;100.00;52904.25;5094447;28;20287;-75
2023/05/12 06:30:30;;;;;;;;;;;;;;;-140.72;100.00;52869.75;5099439;28;20656;-75
2023/05/12 06:32:55;;;;;;;;;;;;;;;-140.72;100.00;52867.72;5092159;28;20297;-75
2023/05/12 06:35:21;;;;;;;;;;;;;;;-140.72;100.00;52845.41;5107846;28;19915;-75
2023/05/12 06:37:49;;;;;;;;;;;;;;;-140.72;100.00;52837.28;5092473;28;19924;-76
2023/05/12 06:40:15;;;;;;;;;;;;;;;-140.72;100.00;52873.81;5111254;28;19951;-75
2023/05/12 06:42:41;;;;;;;;;;;;;;;-140.72;100.00;52823.09;5098321;28;20302;-75
2023/05/12 06:45:06;;;;;;;;;;;;;;;-140.72;100.00;52849.47;5086460;28;20045;-75
2023/05/12 06:47:32;;;;;;;;;;;;;;;-140.72;100.00;52853.53;5096475;28;19920;-75
2023/05/12 06:49:57;;;;;;;;;;;;;;;-140.72;100.00;52843.38;5091456;28;19966;-75
2023/05/12 06:52:22;;;;;;;;;;;;;;;-140.72;100.00;52861.66;5087139;28;20259;-75
2023/05/12 06:54:48;;;;;;;;;;;;;;;-140.72;100.00;52861.66;5084714;28;19916;-75
2023/05/12 06:57:13;;;;;;;;;;;;;;;-140.72;100.00;52861.66;5101222;28;19942;-75
2023/05/12 06:59:38;;;;;;;;;;;;;;;-140.72;100.00;52865.69;5102033;28;20419;-75
2023/05/12 07:02:04;;;;;;;;;;;;;;;-140.72;100.00;52859.63;5110967;28;20327;-75
2023/05/12 07:04:29;;;;;;;;;;;;;;;-140.72;100.00;52859.63;5100564;28;19923;-75
2023/05/12 07:06:55;;;;;;;;;;;;;;;-140.72;100.00;52877.88;5098051;28;20364;-75
2023/05/12 07:09:21;;;;;;;;;;;;;;;-140.72;100.00;52833.22;5104069;28;19915;-75
2023/05/12 07:11:46;;;;;;;;;;;;;;;-140.72;100.00;52869.75;5097134;28;20047;-76
2023/05/12 07:14:11;;;;;;;;;;;;;;;-140.72;100.00;52853.53;5093329;28;19927;-75
2023/05/12 07:16:36;;;;;;;;;;;;;;;-140.72;100.00;52827.16;5105042;28;19923;-76
2023/05/12 07:19:02;;;;;;;;;;;;;;;-140.72;100.00;52829.19;5106602;28;19915;-75
2023/05/12 07:21:28;;;;;;;;;;;;;;;-140.72;100.00;52853.53;5093733;28;20406;-76
2023/05/12 07:23:53;;;;;;;;;;;;;;;-140.72;100.00;52855.56;5083857;28;19916;-75
2023/05/12 07:26:19;;;;;;;;;;;;;;;-140.72;100.00;52845.41;5093398;28;19931;-76
2023/05/12 07:28:45;;;;;;;;;;;;;;;-140.72;100.00;52790.63;5111424;28;20293;-76
2023/05/12 07:31:10;;;;;;;;;;;;;;;-140.72;100.00;52808.88;5111545;28;19999;-76
2023/05/12 07:33:35;;;;;;;;;;;;;;;-140.72;100.00;52867.72;5099344;28;19943;-76
2023/05/12 07:36:01;;;;;;;;;;;;;;;-140.72;100.00;52810.91;5107562;28;19924;-76
2023/05/12 07:38:26;;;;;;;;;;;;;;;-140.72;100.00;52819.03;5115862;28;19962;-76
2023/05/12 07:40:52;;;;;;;;;;;;;;;-140.72;100.00;52770.31;5097654;28;19920;-75
2023/05/12 07:43:17;;;;;;;;;;;;;;;-140.72;100.00;52768.28;5096869;28;19923;-76
2023/05/12 07:45:43;;;;;;;;;;;;;;;-140.72;100.00;52784.53;5085166;28;19920;-75
2023/05/12 07:48:10;;;;;;;;;;;;;;;-140.72;100.00;52819.03;5094969;28;19927;-76
2023/05/12 07:50:35;;;;;;;;;;;;;;;-140.72;100.00;52810.91;5084148;28;19920;-76
2023/05/12 07:53:00;;;;;;;;;;;;;;;-140.72;100.00;52766.25;5089449;28;20398;-75
2023/05/12 07:55:25;;;;;;;;;;;;;;;-140.72;100.00;52778.44;5091800;28;19947;-76
2023/05/12 07:57:51;;;;;;;;;;;;;;;-140.72;100.00;52810.91;5091271;28;19920;-76
2023/05/12 08:00:17;;;;;;;;;;;;;;;-140.72;100.00;52758.16;5106625;28;20308;-76
2023/05/12 08:02:42;;;;;;;;;;;;;;;-140.72;100.00;52774.38;5113675;28;19915;-75
2023/05/12 08:05:11;;;;;;;;;;;;;;;-140.72;100.00;52731.75;5108633;28;19919;-76
2023/05/12 08:07:37;;;;;;;;;;;;;;;-140.72;100.00;52762.22;5116358;28;19954;-75
2023/05/12 08:10:03;;;;;;;;;;;;;;;-140.72;100.00;52754.09;5108625;28;19954;-75
2023/05/12 08:12:28;;;;;;;;;;;;;;;-140.72;100.00;52748.00;5108329;28;19924;-75
2023/05/12 08:14:53;;;;;;;;;;;;;;;-140.72;100.00;52764.25;5090799;28;19920;-76
2023/05/12 08:17:19;;;;;;;;;;;;;;;-140.72;100.00;52772.34;5105989;28;19942;-75
2023/05/12 08:19:45;;;;;;;;;;;;;;;-140.72;100.00;52756.13;5095984;28;19946;-76
2023/05/12 08:22:10;;;;;;;;;;;;;;;-140.72;100.00;52733.78;5096319;28;19916;-76
2023/05/12 08:24:35;;;;;;;;;;;;;;;-140.72;100.00;52743.94;5106862;27;20372;-76
2023/05/12 08:27:00;;;;;;;;;;;;;;;-140.72;100.00;52729.75;5092201;28;19916;-76
2023/05/12 08:29:25;;;;;;;;;;;;;;;-140.72;100.00;52711.47;5090977;28;19924;-76
2023/05/12 08:31:51;;;;;;;;;;;;;;;-140.72;100.00;52772.34;5091817;28;20279;-75
2023/05/12 08:34:16;;;;;;;;;;;;;;;-140.72;100.00;52737.84;5086900;28;19924;-76
2023/05/12 08:36:41;;;;;;;;;;;;;;;-140.72;100.00;52748.00;5088631;28;20003;-76
2023/05/12 08:39:09;;;;;;;;;;;;;;;-140.72;100.00;52709.44;5086120;28;19959;-76
2023/05/12 08:41:34;;;;;;;;;;;;;;;-140.72;100.00;52711.47;5087964;28;19925;-76
2023/05/12 08:44:00;;;;;;;;;;;;;;;-140.72;100.00;52699.31;5097876;28;21343;-76
2023/05/12 08:46:25;;;;;;;;;;;;;;;-140.72;100.00;52729.75;5097584;28;19924;-76
2023/05/12 08:48:51;;;;;;;;;;;;;;;-140.72;100.00;52711.47;5089100;28;19920;-76
2023/05/12 08:51:17;;;;;;;;;;;;;;;-140.72;100.00;52719.59;5104785;27;20008;-76
2023/05/12 08:53:42;;;;;;;;;;;;;;;-140.72;100.00;52672.91;5087871;28;20011;-76
2023/05/12 08:56:09;;;;;;;;;;;;;;;-140.72;100.00;52658.72;5095364;28;19963;-76
2023/05/12 08:58:35;;;;;;;;;;;;;;;-140.72;100.00;52630.31;5095822;28;19973;-76
2023/05/12 09:01:03;;;;;;;;;;;;;;;-140.72;100.00;52638.41;5103731;28;19927;-76
2023/05/12 09:03:29;;;;;;;;;;;;;;;-140.72;100.00;52614.06;5112379;28;20370;-76
2023/05/12 09:05:56;;;;;;;;;;;;;;;-140.72;100.00;52595.81;5097709;28;19946;-76
2023/05/12 09:08:21;;;;;;;;;;;;;;;-140.72;100.00;52612.03;5104791;28;20362;-76
2023/05/12 09:10:48;;;;;;;;;;;;;;;-140.72;100.00;52662.78;5096577;28;19977;-76
2023/05/12 09:13:19;;;;;;;;;;;;;;;-140.72;100.00;52648.56;5103840;28;19916;-76
2023/05/12 09:15:46;;;;;;;;;;;;;;;-140.72;100.00;52614.06;5093660;28;19924;-76
2023/05/12 09:18:11;;;;;;;;;;;;;;;-140.72;100.00;52628.28;5106433;28;19916;-76
2023/05/12 09:20:36;;;;;;;;;;;;;;;-140.72;100.00;52585.66;5109129;28;19930;-77
2023/05/12 09:23:15;;;;;;;;;;;;;;;-140.72;100.00;52583.63;5095512;28;19952;-77
2023/05/12 09:25:40;;;;;;;;;;;;;;;-140.72;100.00;52581.59;5095089;28;19920;-77
2023/05/12 09:28:05;;;;;;;;;;;;;;;-140.72;100.00;52559.28;5093985;28;20293;-77
2023/05/12 09:30:34;;;;;;;;;;;;;;;-140.72;100.00;52587.69;5103527;28;20380;-77
2023/05/12 09:33:09;;;;;;;;;;;;;;;-140.72;100.00;52528.84;5096755;28;20728;-77
2023/05/12 09:35:41;;;;;;;;;;;;;;;-140.72;100.00;52543.03;5093719;28;19945;-77
2023/05/12 09:38:11;;;;;;;;;;;;;;;-140.72;100.00;52536.97;5108675;28;19926;-76
2023/05/12 09:40:37;;;;;;;;;;;;;;;-140.72;100.00;52549.13;5108724;28;19932;-77
2023/05/12 09:43:04;;;;;;;;;;;;;;;-140.72;100.00;52557.25;5106438;28;19931;-77
2023/05/12 09:45:32;;;;;;;;;;;;;;;-140.72;100.00;52514.63;5097713;28;19920;-77
2023/05/12 09:48:01;;;;;;;;;;;;;;;-140.72;100.00;52472.03;5096451;28;20452;-77
2023/05/12 09:50:28;;;;;;;;;;;;;;;-140.72;100.00;52484.19;5087139;28;19927;-77
2023/05/12 09:52:53;;;;;;;;;;;;;;;-140.72;100.00;52478.13;5080684;28;19916;-77
2023/05/12 09:55:19;;;;;;;;;;;;;;;-140.72;100.00;52496.38;5088144;28;19920;-76
2023/05/12 09:57:45;;;;;;;;;;;;;;;-140.72;100.00;52502.47;5105637;28;19919;-76
2023/05/12 10:00:18;;;;;;;;;;;;;;;-140.72;100.00;52476.09;5093258;28;19917;-77
2023/05/12 10:02:47;;;;;;;;;;;;;;;-140.72;95.13;52445.66;5090927;28;19916;-77
2023/05/12 10:05:18;;;;;;;;;;;;;;;-140.72;87.53;52476.09;5086917;28;19924;-75
2023/05/12 10:07:45;;;;;;;;;;;;;;;-140.72;51.81;52480.16;5087671;28;19920;-76
2023/05/12 10:10:12;;;;;;;;;;;;;;;-140.72;26.66;52405.06;5082899;28;19955;-76
2023/05/12 10:12:38;;;;;;;;;;;;;;;-140.72;0.03;52457.81;5088038;28;19917;-75
2023/05/12 10:15:05;;;;;;;;;;;;;;;-140.72;0.00;52352.31;5085396;28;19916;-77
2023/05/12 10:17:34;;;;;;;;;;;;;;;-140.72;0.00;52429.41;5081668;28;20442;-76
2023/05/12 10:20:00;;;;;;;;;;;;;;;-140.72;0.00;52374.63;5086573;28;19924;-78
2023/05/12 10:22:25;;;;;;;;;;;;;;;-140.72;0.00;52378.69;5085795;28;19916;-76
2023/05/12 10:24:53;;;;;;;;;;;;;;;-140.72;0.00;52362.44;5092595;28;21199;-76
2023/05/12 10:27:18;;;;;;;;;;;;;;;-140.72;0.00;52350.28;5077457;28;19917;-79
2023/05/12 10:29:45;;;;;;;;;;;;;;;-140.72;0.00;52315.78;5094343;28;19916;-77
2023/05/12 10:32:11;;;;;;;;;;;;;;;-140.72;0.00;52301.59;5103386;28;19920;-78
2023/05/12 10:34:36;;;;;;;;;;;;;;;-140.72;0.00;52313.75;5103763;28;20391;-77
2023/05/12 10:37:07;;;;;;;;;;;;;;;-140.72;0.00;52232.59;5103729;28;19916;-78
2023/05/12 10:39:33;;;;;;;;;;;;;;;-140.72;0.00;52340.13;5087908;28;19916;-77
2023/05/12 10:42:08;;;;;;;;;;;;;;;-140.72;0.00;52327.97;5094459;28;19922;-77
2023/05/12 10:44:34;;;;;;;;;;;;;;;-140.72;0.00;52388.84;5097207;28;20031;-77
2023/05/12 10:47:00;;;;;;;;;;;;;;;-140.72;0.00;52431.44;5097412;28;19930;-78
2023/05/12 10:49:38;;;;;;;;;;;;;;;-140.72;0.00;52459.84;5092086;28;19916;-74
2023/05/12 10:52:04;;;;;;;;;;;;;;;-140.72;0.00;52459.84;5097340;28;20060;-77
2023/05/12 10:54:35;;;;;;;;;;;;;;;-140.72;0.00;52431.44;5086562;28;19951;-76
2023/05/12 10:57:00;;;;;;;;;;;;;;;-140.72;0.00;52364.47;5086579;28;19916;-75
2023/05/12 10:59:26;;;;;;;;;;;;;;;-140.72;0.00;52411.16;5086971;28;19924;-76
2023/05/12 11:01:59;;;;;;;;;;;;;;;-140.72;0.00;52354.34;5091517;28;19935;-77
2023/05/12 11:04:44;;;;;;;;;;;;;;;-140.72;0.00;52258.97;5087318;28;19920;-77
2023/05/12 11:07:11;;;;;;;;;;;;;;;-140.72;0.00;52208.25;5084148;28;19917;-76
2023/05/12 11:09:43;;;;;;;;;;;;;;;-140.72;0.00;52198.09;5093682;28;19923;-78
2023/05/12 11:12:09;;;;;;;;;;;;;;;-140.72;0.00;52299.56;5088116;28;19966;-76
2023/05/12 11:14:36;;;;;;;;;;;;;;;-140.72;0.00;52242.75;5087519;28;19916;-74
2023/05/12 11:17:01;;;;;;;;;;;;;;;-140.72;0.00;52346.22;5091519;28;19923;-75
2023/05/12 11:19:27;;;;;;;;;;;;;;;-140.72;0.00;52252.88;5088251;28;19954;-78
2023/05/12 11:21:52;;;;;;;;;;;;;;;-140.72;0.00;52139.25;5090402;28;19917;-77
2023/05/12 11:24:19;;;;;;;;;;;;;;;-140.72;0.00;52194.03;5083644;28;19916;-75
2023/05/12 11:26:44;;;;;;;;;;;;;;;-140.72;0.00;52167.66;5080631;28;20361;-74
2023/05/12 11:29:10;;;;;;;;;;;;;;;-140.72;0.00;52265.06;5094087;28;19947;-76
2023/05/12 11:31:35;;;;;;;;;;;;;;;-140.72;0.00;52311.72;5079240;28;19977;-76
2023/05/12 11:34:01;;;;;;;;;;;;;;;-140.72;0.00;52374.63;5090162;28;19955;-74
2023/05/12 11:36:27;;;;;;;;;;;;;;;-140.72;0.00;52330.00;5079401;28;19921;-75
2023/05/12 11:38:52;;;;;;;;;;;;;;;-140.72;0.00;52287.38;5083469;28;19940;-74
2023/05/12 11:41:25;;;;;;;;;;;;;;;-140.72;0.00;52313.75;5088630;28;20429;-73
2023/05/12 11:43:50;;;;;;;;;;;;;;;-140.72;0.00;52297.53;5088212;28;19917;-74
2023/05/12 11:46:28;;;;;;;;;;;;;;;-140.72;0.00;52338.09;5083856;28;20003;-74
2023/05/12 11:48:57;;;;;;;;;;;;;;;-140.72;0.00;52307.66;5082586;28;20302;-75
2023/05/12 11:51:22;;;;;;;;;;;;;;;-140.72;0.00;52265.06;5087865;28;20374;-74
2023/05/12 11:53:48;;;;;;;;;;;;;;;-140.72;0.00;52151.44;5092735;28;19916;-74
2023/05/12 11:56:18;;;;;;;;;;;;;;;-140.72;0.00;52141.28;5081651;28;20018;-75
2023/05/12 11:58:50;;;;;;;;;;;;;;;-140.72;0.00;52192.00;5076257;28;19924;-75
2023/05/12 12:01:16;;;;;;;;;;;;;;;-140.72;0.00;52194.03;5103501;28;19942;-74
2023/05/12 12:03:46;;;;;;;;;;;;;;;-140.72;0.00;52062.16;5085122;28;19928;-76
2023/05/12 12:06:11;;;;;;;;;;;;;;;-140.72;0.00;52074.34;5091279;28;19916;-76
2023/05/12 12:08:39;;;;;;;;;;;;;;;-140.72;0.00;52066.22;5088136;28;19928;-76
2023/05/12 12:11:06;;;;;;;;;;;;;;;-140.72;0.00;52031.72;5098253;28;20282;-76
2023/05/12 12:13:31;;;;;;;;;;;;;;;-140.72;0.00;52033.75;5092259;28;19916;-76
2023/05/12 12:15:56;;;;;;;;;;;;;;;-140.72;0.00;52021.56;5092725;28;19930;-76